createdAt,value
2018-02-12T00:01:54.439Z,11.03
2018-02-12T00:04:22.649Z,10.90
2018-02-12T00:06:51.664Z,10.47
2018-02-12T00:09:19.937Z,10.80
2018-02-12T00:11:48.213Z,11.30
2018-02-12T00:14:16.493Z,10.63
2018-02-12T00:16:45.635Z,9.80
2018-02-12T00:19:13.872Z,10.13
2018-02-12T00:21:42.935Z,10.50
2018-02-12T00:24:11.194Z,11.63
2018-02-12T00:26:39.486Z,11.20
2018-02-12T00:29:07.708Z,11.30
2018-02-12T00:31:35.962Z,10.50
2018-02-12T00:34:05.021Z,10.83
2018-02-12T00:36:34.820Z,11.10
2018-02-12T00:39:03.100Z,10.73
2018-02-12T00:41:31.394Z,11.50
2018-02-12T00:43:59.661Z,11.40
2018-02-12T00:46:27.949Z,12.10
2018-02-12T00:48:56.204Z,11.80
2018-02-12T00:51:24.473Z,12.20
2018-02-12T00:53:52.731Z,12.07
2018-02-12T00:56:20.972Z,11.40
2018-02-12T00:58:50.009Z,11.60
2018-02-12T01:01:18.266Z,11.80
2018-02-12T01:03:47.302Z,12.00
2018-02-12T01:06:15.685Z,12.10
2018-02-12T01:08:43.960Z,12.60
2018-02-12T01:11:12.233Z,11.10
2018-02-12T01:13:40.519Z,13.23
2018-02-12T01:16:08.818Z,11.50
2018-02-12T01:18:37.716Z,12.30
2018-02-12T01:21:07.474Z,12.67
2018-02-12T01:23:35.738Z,11.90
2018-02-12T01:26:03.997Z,12.60
2018-02-12T01:28:33.044Z,12.27
2018-02-12T01:31:01.314Z,11.83
2018-02-12T01:33:29.588Z,11.47
2018-02-12T01:35:57.850Z,10.83
2018-02-12T01:38:26.886Z,12.80
2018-02-12T01:40:55.142Z,11.77
2018-02-12T01:43:23.426Z,11.33
2018-02-12T01:45:51.694Z,12.10
2018-02-12T01:48:19.943Z,11.57
2018-02-12T01:50:48.968Z,12.93
2018-02-12T01:53:17.222Z,12.13
2018-02-12T01:55:46.243Z,10.20
2018-02-12T01:58:14.515Z,10.60
2018-02-12T02:00:42.784Z,10.23
2018-02-12T02:03:11.038Z,12.80
2018-02-12T02:05:40.094Z,11.57
2018-02-12T02:08:08.342Z,11.50
2018-02-12T02:10:36.607Z,13.27
2018-02-12T02:13:04.869Z,12.80
2018-02-12T02:15:33.135Z,11.77
2018-02-12T02:18:01.375Z,14.33
2018-02-12T02:20:29.634Z,12.63
2018-02-12T02:22:58.134Z,14.83
2018-02-12T02:25:26.378Z,12.30
2018-02-12T02:27:54.668Z,13.63
2018-02-12T02:30:22.922Z,15.83
2018-02-12T02:32:51.214Z,14.70
2018-02-12T02:35:19.486Z,15.47
2018-02-12T02:37:47.754Z,16.57
2018-02-12T02:40:16.771Z,18.43
2018-02-12T02:42:44.995Z,17.50
2018-02-12T02:45:13.239Z,18.30
2018-02-12T02:47:41.506Z,17.00
2018-02-12T02:50:09.809Z,17.43
2018-02-12T02:52:38.065Z,16.20
2018-02-12T02:55:06.337Z,16.00
2018-02-12T02:57:34.624Z,14.20
2018-02-12T03:00:02.850Z,13.57
2018-02-12T03:02:31.873Z,15.77
2018-02-12T03:05:00.156Z,14.07
2018-02-12T03:07:28.424Z,13.63
2018-02-12T03:09:56.668Z,12.53
2018-02-12T03:12:25.752Z,14.00
2018-02-12T03:14:54.384Z,11.70
2018-02-12T03:17:22.672Z,12.53
2018-02-12T03:19:50.932Z,12.83
2018-02-12T03:22:19.230Z,12.60
2018-02-12T03:24:47.559Z,12.97
2018-02-12T03:27:15.784Z,11.67
2018-02-12T03:29:44.065Z,11.63
2018-02-12T03:32:12.313Z,10.23
2018-02-12T03:34:40.585Z,9.63
2018-02-12T03:37:09.633Z,9.87
2018-02-12T03:39:37.859Z,10.80
2018-02-12T03:42:06.888Z,11.83
2018-02-12T03:44:35.141Z,10.60
2018-02-12T03:47:03.897Z,11.40
2018-02-12T03:49:32.181Z,11.33
2018-02-12T03:52:00.419Z,11.37
2018-02-12T03:54:28.665Z,10.80
2018-02-12T03:56:56.924Z,10.30
2018-02-12T03:59:25.960Z,10.40
2018-02-12T04:01:54.439Z,10.73
2018-02-12T04:04:22.683Z,10.37
2018-02-12T04:06:51.713Z,10.07
2018-02-12T04:09:19.984Z,9.87
2018-02-12T04:11:48.243Z,10.07
2018-02-12T04:14:16.542Z,10.07
2018-02-12T04:16:44.802Z,10.50
2018-02-12T04:19:13.045Z,10.57
2018-02-12T04:21:42.085Z,10.60
2018-02-12T04:24:10.324Z,11.13
2018-02-12T04:26:39.353Z,12.33
2018-02-12T04:29:08.390Z,11.50
2018-02-12T04:31:36.645Z,11.67
2018-02-12T04:34:04.906Z,13.23
2018-02-12T04:36:33.163Z,11.60
2018-02-12T04:39:01.425Z,13.67
2018-02-12T04:41:29.726Z,11.03
2018-02-12T04:43:57.996Z,12.53
2018-02-12T04:46:27.993Z,12.17
2018-02-12T04:48:56.239Z,13.30
2018-02-12T04:51:24.514Z,12.33
2018-02-12T04:53:52.805Z,12.10
2018-02-12T04:56:21.856Z,10.83
2018-02-12T04:58:50.937Z,11.97
2018-02-12T05:01:19.194Z,10.20
2018-02-12T05:03:48.245Z,12.10
2018-02-12T05:06:16.504Z,11.97
2018-02-12T05:08:44.802Z,12.50
2018-02-12T05:11:13.044Z,15.10
2018-02-12T05:13:41.338Z,13.43
2018-02-12T05:16:09.603Z,12.40
2018-02-12T05:18:37.873Z,12.80
2018-02-12T05:21:06.897Z,11.20
2018-02-12T05:23:35.157Z,12.27
2018-02-12T05:26:04.157Z,13.73
2018-02-12T05:28:32.416Z,13.30
2018-02-12T05:31:01.441Z,13.40
2018-02-12T05:33:30.456Z,13.60
2018-02-12T05:35:58.747Z,10.70
2018-02-12T05:38:26.992Z,12.37
2018-02-12T05:40:55.283Z,10.80
2018-02-12T05:43:23.522Z,13.60
2018-02-12T05:45:51.813Z,11.37
2018-02-12T05:48:20.053Z,11.70
2018-02-12T05:50:49.049Z,12.23
2018-02-12T05:53:18.084Z,14.60
2018-02-12T05:55:46.357Z,11.60
2018-02-12T05:58:14.864Z,12.70
2018-02-12T06:00:43.133Z,13.57
2018-02-12T06:03:11.397Z,11.93
2018-02-12T06:05:39.671Z,13.30
2018-02-12T06:08:07.926Z,14.13
2018-02-12T06:10:36.946Z,11.80
2018-02-12T06:13:05.186Z,12.43
2018-02-12T06:15:34.217Z,13.23
2018-02-12T06:18:02.492Z,14.33
2018-02-12T06:20:30.784Z,12.97
2018-02-12T06:22:59.032Z,13.40
2018-02-12T06:25:27.278Z,15.30
2018-02-12T06:27:55.562Z,13.43
2018-02-12T06:30:24.588Z,13.87
2018-02-12T06:32:52.864Z,11.80
2018-02-12T06:35:21.903Z,11.73
2018-02-12T06:37:50.175Z,11.90
2018-02-12T06:40:18.450Z,12.30
2018-02-12T06:42:46.706Z,12.97
2018-02-12T06:45:14.985Z,13.30
2018-02-12T06:47:43.231Z,12.17
2018-02-12T06:50:12.287Z,11.57
2018-02-12T06:52:40.517Z,12.27
2018-02-12T06:55:08.792Z,12.60
2018-02-12T06:57:37.061Z,12.43
2018-02-12T07:00:06.134Z,12.20
2018-02-12T07:02:34.355Z,12.33
2018-02-12T07:05:02.635Z,9.70
2018-02-12T07:07:30.853Z,10.80
2018-02-12T07:09:59.134Z,12.67
2018-02-12T07:12:27.394Z,15.97
2018-02-12T07:14:55.659Z,10.70
2018-02-12T07:17:23.903Z,10.97
2018-02-12T07:19:52.413Z,11.17
2018-02-12T07:22:20.666Z,12.90
2018-02-12T07:24:49.017Z,11.00
2018-02-12T07:27:17.250Z,11.70
2018-02-12T07:29:45.525Z,13.23
2018-02-12T07:32:13.770Z,12.33
2018-02-12T07:34:42.085Z,11.80
2018-02-12T07:37:11.145Z,13.03
2018-02-12T07:39:39.388Z,12.30
2018-02-12T07:42:07.684Z,13.30
2018-02-12T07:44:35.954Z,11.83
2018-02-12T07:47:04.234Z,13.20
2018-02-12T07:49:33.246Z,12.73
2018-02-12T07:52:02.277Z,13.77
2018-02-12T07:54:30.539Z,12.90
2018-02-12T07:56:58.834Z,13.70
2018-02-12T07:59:27.071Z,11.73
2018-02-12T08:01:55.334Z,12.13
2018-02-12T08:04:23.682Z,12.83
2018-02-12T08:06:52.092Z,12.60
2018-02-12T08:09:21.848Z,12.67
2018-02-12T08:11:50.113Z,11.63
2018-02-12T08:14:18.383Z,11.50
2018-02-12T08:16:47.405Z,11.20
2018-02-12T08:19:15.676Z,10.50
2018-02-12T08:21:43.981Z,10.40
2018-02-12T08:24:12.288Z,12.90
2018-02-12T08:26:40.532Z,9.70
2018-02-12T08:29:08.798Z,11.03
2018-02-12T08:31:37.088Z,10.40
2018-02-12T08:34:05.331Z,13.30
2018-02-12T08:36:33.672Z,10.77
2018-02-12T08:39:01.902Z,10.43
2018-02-12T08:41:30.190Z,11.83
2018-02-12T08:43:58.470Z,9.60
2018-02-12T08:46:27.042Z,10.63
2018-02-12T08:48:55.332Z,10.00
2018-02-12T08:51:23.616Z,9.77
2018-02-12T08:53:51.909Z,10.20
2018-02-12T08:56:20.198Z,11.00
2018-02-12T08:58:48.419Z,10.90
2018-02-12T09:01:17.151Z,10.30
2018-02-12T09:03:45.405Z,12.03
2018-02-12T09:06:13.664Z,11.87
2018-02-12T09:08:41.942Z,14.80
2018-02-12T09:11:10.220Z,14.10
2018-02-12T09:13:38.481Z,13.37
2018-02-12T09:16:06.746Z,13.47
2018-02-12T09:18:35.042Z,14.03
2018-02-12T09:21:04.068Z,13.93
2018-02-12T09:23:32.314Z,16.63
2018-02-12T09:26:00.631Z,14.80
2018-02-12T09:28:29.600Z,13.93
2018-02-12T09:30:58.675Z,15.00
2018-02-12T09:33:26.994Z,16.87
2018-02-12T09:35:55.230Z,17.50
2018-02-12T09:38:24.264Z,15.53
2018-02-12T09:40:52.633Z,21.37
2018-02-12T09:43:21.302Z,14.60
2018-02-12T09:45:49.708Z,12.40
2018-02-12T09:48:17.980Z,14.60
2018-02-12T09:50:46.213Z,12.80
2018-02-12T09:53:15.244Z,13.60
2018-02-12T09:55:43.501Z,14.03
2018-02-12T09:58:11.822Z,14.17
2018-02-12T10:00:40.107Z,13.70
2018-02-12T10:03:08.363Z,14.63
2018-02-12T10:05:36.623Z,13.30
2018-02-12T10:08:04.952Z,14.00
2018-02-12T10:10:33.205Z,15.00
2018-02-12T10:13:01.511Z,15.13
2018-02-12T10:15:29.817Z,14.80
2018-02-12T10:17:58.846Z,16.57
2018-02-12T10:20:27.104Z,15.07
2018-02-12T10:22:55.396Z,15.00
2018-02-12T10:25:23.627Z,15.77
2018-02-12T10:27:52.685Z,13.77
2018-02-12T10:30:20.957Z,14.20
2018-02-12T10:32:49.263Z,13.97
2018-02-12T10:35:17.558Z,13.67
2018-02-12T10:37:46.314Z,12.30
2018-02-12T10:40:14.555Z,12.43
2018-02-12T10:42:42.810Z,13.67
2018-02-12T10:45:11.879Z,14.00
2018-02-12T10:47:40.151Z,11.47
2018-02-12T10:50:08.415Z,11.27
2018-02-12T10:52:36.690Z,11.07
2018-02-12T10:55:04.999Z,12.37
2018-02-12T10:57:33.239Z,11.57
2018-02-12T11:00:01.555Z,10.93
2018-02-12T11:02:30.564Z,11.83
2018-02-12T11:04:59.619Z,11.17
2018-02-12T11:07:27.911Z,11.97
2018-02-12T11:09:56.204Z,11.10
2018-02-12T11:12:25.297Z,12.30
2018-02-12T11:14:53.565Z,11.60
2018-02-12T11:17:22.721Z,10.87
2018-02-12T11:19:50.994Z,34.73
2018-02-12T11:22:19.285Z,10.60
2018-02-12T11:24:47.560Z,10.80
2018-02-12T11:27:15.885Z,11.17
2018-02-12T11:29:44.145Z,10.77
2018-02-12T11:32:12.553Z,10.40
2018-02-12T11:34:41.595Z,10.37
2018-02-12T11:37:09.834Z,9.97
2018-02-12T11:39:38.880Z,10.67
2018-02-12T11:42:07.242Z,10.70
2018-02-12T11:44:35.527Z,10.10
2018-02-12T11:47:03.851Z,10.57
2018-02-12T11:49:32.074Z,9.50
2018-02-12T11:52:00.343Z,9.80
2018-02-12T11:54:29.379Z,9.87
2018-02-12T11:56:57.639Z,9.63
2018-02-12T11:59:25.907Z,8.70
2018-02-12T12:01:54.182Z,8.50
2018-02-12T12:04:22.434Z,9.53
2018-02-12T12:06:51.502Z,8.80
2018-02-12T12:09:19.776Z,9.40
2018-02-12T12:11:49.152Z,10.10
2018-02-12T12:14:17.390Z,8.30
2018-02-12T12:16:45.680Z,9.83
2018-02-12T12:19:13.942Z,9.57
2018-02-12T12:21:42.215Z,7.60
2018-02-12T12:24:11.300Z,10.80
2018-02-12T12:26:40.345Z,18.80
2018-02-12T12:29:08.681Z,10.43
2018-02-12T12:31:38.333Z,11.90
2018-02-12T12:34:06.635Z,12.83
2018-02-12T12:36:34.882Z,12.03
2018-02-12T12:39:03.232Z,10.23
2018-02-12T12:41:32.262Z,10.50
2018-02-12T12:44:00.576Z,10.23
2018-02-12T12:46:28.872Z,10.57
2018-02-12T12:48:57.907Z,10.07
2018-02-12T12:51:27.251Z,11.30
2018-02-12T12:53:55.511Z,10.30
2018-02-12T12:56:23.815Z,9.70
2018-02-12T12:58:53.654Z,8.10
2018-02-12T13:01:21.946Z,9.57
2018-02-12T13:03:50.240Z,7.17
2018-02-12T13:06:18.519Z,8.90
2018-02-12T13:08:46.776Z,8.30
2018-02-12T13:11:15.037Z,7.80
2018-02-12T13:13:44.049Z,8.87
2018-02-12T13:16:12.320Z,8.70
2018-02-12T13:18:40.621Z,8.87
2018-02-12T13:21:09.669Z,8.07
2018-02-12T13:23:37.944Z,8.10
2018-02-12T13:26:06.320Z,7.23
2018-02-12T13:28:34.561Z,7.30
2018-02-12T13:31:02.828Z,6.00
2018-02-12T13:33:31.100Z,7.47
2018-02-12T13:35:59.371Z,7.77
2018-02-12T13:38:27.631Z,7.30
2018-02-12T13:40:55.896Z,7.40
2018-02-12T13:43:24.184Z,6.10
2018-02-12T13:45:53.232Z,6.37
2018-02-12T13:48:21.449Z,6.63
2018-02-12T13:50:50.472Z,5.27
2018-02-12T13:53:18.727Z,6.23
2018-02-12T13:55:47.743Z,5.20
2018-02-12T13:58:15.997Z,4.50
2018-02-12T14:00:44.286Z,5.20
2018-02-12T14:03:12.571Z,6.33
2018-02-12T14:05:41.569Z,14.40
2018-02-12T14:08:09.892Z,8.70
2018-02-12T14:10:38.116Z,6.13
2018-02-12T14:13:06.411Z,6.40
2018-02-12T14:15:34.660Z,6.20
2018-02-12T14:18:03.704Z,6.33
2018-02-12T14:20:33.679Z,4.60
2018-02-12T14:23:02.704Z,5.57
2018-02-12T14:25:31.023Z,6.87
2018-02-12T14:27:59.708Z,5.60
2018-02-12T14:30:28.035Z,6.00
2018-02-12T14:32:56.296Z,5.57
2018-02-12T14:35:25.329Z,5.50
2018-02-12T14:37:53.591Z,6.07
2018-02-12T14:40:21.830Z,4.80
2018-02-12T14:42:50.831Z,6.50
2018-02-12T14:45:19.899Z,6.60
2018-02-12T14:47:48.128Z,6.67
2018-02-12T14:50:16.732Z,5.97
2018-02-12T14:52:44.975Z,7.07
2018-02-12T14:55:13.233Z,6.27
2018-02-12T14:57:42.270Z,7.20
2018-02-12T15:06:58.308Z,4.63
2018-02-12T15:09:26.571Z,4.40
2018-02-12T15:11:54.842Z,4.50
2018-02-12T15:14:23.155Z,4.57
2018-02-12T15:16:51.441Z,4.33
2018-02-12T15:19:20.167Z,4.13
2018-02-12T15:21:49.934Z,6.20
2018-02-12T15:24:18.184Z,6.20
2018-02-12T15:26:46.453Z,5.50
2018-02-12T15:29:15.483Z,4.70
2018-02-12T15:31:43.946Z,5.03
2018-02-12T15:34:12.821Z,5.47
2018-02-12T15:36:41.096Z,4.93
2018-02-12T15:39:09.390Z,5.77
2018-02-12T15:41:37.707Z,5.70
2018-02-12T15:44:06.098Z,5.83
2018-02-12T15:46:34.308Z,5.47
2018-02-12T15:49:03.371Z,7.90
2018-02-12T15:51:31.979Z,6.60
2018-02-12T15:54:01.256Z,6.90
2018-02-12T15:56:29.517Z,6.57
2018-02-12T15:58:57.800Z,5.23
2018-02-12T16:01:26.051Z,6.50
2018-02-12T16:03:54.318Z,6.10
2018-02-12T16:06:22.588Z,5.57
2018-02-12T16:08:51.627Z,6.03
2018-02-12T16:11:19.850Z,5.63
2018-02-12T16:13:48.131Z,7.10
2018-02-12T16:16:16.403Z,6.00
2018-02-12T16:18:44.699Z,8.83
2018-02-12T16:21:13.260Z,10.57
2018-02-12T16:23:42.314Z,13.83
2018-02-12T16:26:10.565Z,6.90
2018-02-12T16:28:39.063Z,7.67
2018-02-12T16:31:07.393Z,7.70
2018-02-12T16:33:36.382Z,6.90
2018-02-12T16:36:04.671Z,6.83
2018-02-12T16:38:32.930Z,5.83
2018-02-12T16:41:02.177Z,7.00
2018-02-12T16:43:30.420Z,6.30
2018-02-12T16:45:58.794Z,5.73
2018-02-12T16:48:27.086Z,5.87
2018-02-12T16:50:55.373Z,6.20
2018-02-12T16:53:24.230Z,5.80
2018-02-12T16:55:53.266Z,6.03
2018-02-12T16:58:21.560Z,6.10
2018-02-12T17:00:50.112Z,6.23
2018-02-12T17:03:18.410Z,6.50
2018-02-12T17:05:46.666Z,6.23
2018-02-12T17:08:15.421Z,6.37
2018-02-12T17:10:43.686Z,6.83
2018-02-12T17:13:11.924Z,7.80
2018-02-12T17:15:40.356Z,6.47
2018-02-12T17:18:08.592Z,9.27
2018-02-12T17:20:36.939Z,6.80
2018-02-12T17:23:05.891Z,7.97
2018-02-12T17:25:34.302Z,7.77
2018-02-12T17:28:04.048Z,8.00
2018-02-12T17:30:32.349Z,8.00
2018-02-12T17:33:00.671Z,8.47
2018-02-12T17:35:29.710Z,9.57
2018-02-12T17:37:57.985Z,10.97
2018-02-12T17:40:26.270Z,9.30
2018-02-12T17:42:54.559Z,9.47
2018-02-12T17:45:22.852Z,9.27
2018-02-12T17:47:51.165Z,8.97
2018-02-12T17:50:20.215Z,9.20
2018-02-12T17:52:48.650Z,11.03
2018-02-12T17:55:17.088Z,11.47
2018-02-12T17:57:46.501Z,11.53
2018-02-12T18:00:14.754Z,13.20
2018-02-12T18:02:43.896Z,11.80
2018-02-12T18:05:12.967Z,10.30
2018-02-12T18:07:41.354Z,11.80
2018-02-12T18:10:11.156Z,10.50
2018-02-12T18:12:39.755Z,11.90
2018-02-12T18:15:08.814Z,12.50
2018-02-12T18:17:37.062Z,11.77
2018-02-12T18:20:05.388Z,12.47
2018-02-12T18:22:33.745Z,12.40
2018-02-12T18:25:02.013Z,14.00
2018-02-12T18:27:30.331Z,13.77
2018-02-12T18:29:58.605Z,13.40
2018-02-12T18:32:26.942Z,11.63
2018-02-12T18:34:55.259Z,12.73
2018-02-12T18:37:23.526Z,13.10
2018-02-12T18:39:51.849Z,12.50
2018-02-12T18:42:20.876Z,13.97
2018-02-12T18:44:49.181Z,13.60
2018-02-12T18:47:17.464Z,13.50
2018-02-12T18:49:45.752Z,12.53
2018-02-12T18:52:14.096Z,14.47
2018-02-12T18:54:43.562Z,13.83
2018-02-12T18:57:13.188Z,15.47
2018-02-12T18:59:42.354Z,15.60
2018-02-12T19:02:10.689Z,15.53
2018-02-12T19:04:38.984Z,22.97
2018-02-12T19:07:07.301Z,16.27
2018-02-12T19:09:36.342Z,13.63
2018-02-12T19:12:04.764Z,14.83
2018-02-12T19:14:33.398Z,14.53
2018-02-12T19:17:02.462Z,13.90
2018-02-12T19:19:30.952Z,15.33
2018-02-12T19:22:00.945Z,12.73
2018-02-12T19:24:29.281Z,15.07
2018-02-12T19:26:57.941Z,15.03
2018-02-12T19:29:26.992Z,16.27
2018-02-12T19:31:55.286Z,15.10
2018-02-12T19:34:24.382Z,15.57
2018-02-12T19:36:52.681Z,16.70
2018-02-12T19:39:21.088Z,16.90
2018-02-12T19:41:49.524Z,15.00
2018-02-12T19:44:18.616Z,16.23
2018-02-12T19:46:46.871Z,14.00
2018-02-12T19:49:15.158Z,16.00
2018-02-12T19:51:43.493Z,15.80
2018-02-12T19:54:12.205Z,16.30
2018-02-12T19:56:40.646Z,17.50
2018-02-12T19:59:09.703Z,16.30
2018-02-12T20:01:37.972Z,14.83
2018-02-12T20:04:06.235Z,13.93
2018-02-12T20:06:34.569Z,15.77
2018-02-12T20:09:03.666Z,17.40
2018-02-12T20:11:31.972Z,13.13
2018-02-12T20:14:00.283Z,14.80
2018-02-12T20:16:28.549Z,15.23
2018-02-12T20:18:56.821Z,15.53
2018-02-12T20:21:25.159Z,15.00
2018-02-12T20:23:53.462Z,15.27
2018-02-12T20:26:21.756Z,16.27
2018-02-12T20:28:50.135Z,14.37
2018-02-12T20:31:18.398Z,13.00
2018-02-12T20:33:46.699Z,14.03
2018-02-12T20:36:15.030Z,14.03
2018-02-12T20:38:43.376Z,14.53
2018-02-12T20:41:11.637Z,14.17
2018-02-12T20:43:39.963Z,14.40
2018-02-12T20:46:09.033Z,13.47
2018-02-12T20:48:37.421Z,15.20
2018-02-12T20:51:05.691Z,15.53
2018-02-12T20:53:33.967Z,14.57
2018-02-12T20:56:02.210Z,14.23
2018-02-12T20:58:30.477Z,14.50
2018-02-12T21:00:58.859Z,14.60
2018-02-12T21:03:27.139Z,14.60
2018-02-12T21:05:55.510Z,12.53
2018-02-12T21:08:23.852Z,14.57
2018-02-12T21:10:52.915Z,13.57
2018-02-12T21:13:21.215Z,14.53
2018-02-12T21:15:49.505Z,16.73
2018-02-12T21:18:18.780Z,16.20
2018-02-12T21:20:53.157Z,15.53
2018-02-12T21:23:21.456Z,16.10
2018-02-12T21:25:50.213Z,15.03
2018-02-12T21:28:18.560Z,15.17
2018-02-12T21:30:46.831Z,14.80
2018-02-12T21:33:15.121Z,14.20
2018-02-12T21:35:43.411Z,14.20
2018-02-12T21:38:11.709Z,14.17
2018-02-12T21:40:39.989Z,13.33
2018-02-12T21:43:08.368Z,13.97
2018-02-12T21:45:37.390Z,13.37
2018-02-12T21:48:05.642Z,15.77
2018-02-12T21:50:33.925Z,16.27
2018-02-12T21:53:02.180Z,14.70
2018-02-12T21:55:31.210Z,14.90
2018-02-12T21:57:59.498Z,14.83
2018-02-12T22:00:27.827Z,17.00
2018-02-12T22:02:57.244Z,14.07
2018-02-12T22:05:25.595Z,15.07
2018-02-12T22:07:53.896Z,14.67
2018-02-12T22:10:22.146Z,12.57
2018-02-12T22:12:50.410Z,14.20
2018-02-12T22:15:18.700Z,13.97
2018-02-12T22:17:46.980Z,14.37
2018-02-12T22:20:15.250Z,13.00
2018-02-12T22:22:43.558Z,15.30
2018-02-12T22:25:12.249Z,14.93
2018-02-12T22:27:41.288Z,14.77
2018-02-12T22:30:09.559Z,15.97
2018-02-12T22:32:37.846Z,13.63
2018-02-12T22:35:06.097Z,14.70
2018-02-12T22:37:35.191Z,14.67
2018-02-12T22:40:04.232Z,13.97
2018-02-12T22:42:32.497Z,14.83
2018-02-12T22:45:00.754Z,14.13
2018-02-12T22:47:29.044Z,15.30
2018-02-12T22:49:57.317Z,15.00
2018-02-12T22:52:25.595Z,14.53
2018-02-12T22:54:53.858Z,14.43
2018-02-12T22:57:22.154Z,13.00
2018-02-12T22:59:50.410Z,13.07
2018-02-12T23:02:18.669Z,13.40
2018-02-12T23:04:46.949Z,14.10
2018-02-12T23:07:15.628Z,14.80
2018-02-12T23:09:44.659Z,14.63
2018-02-12T23:12:12.914Z,15.67
2018-02-12T23:14:41.172Z,15.43
2018-02-12T23:17:21.455Z,14.17
2018-02-12T23:19:49.905Z,13.73
2018-02-12T23:22:18.156Z,16.63
2018-02-12T23:24:46.420Z,12.70
2018-02-12T23:27:14.702Z,16.30
2018-02-12T23:29:42.945Z,16.80
2018-02-12T23:32:11.210Z,15.17
2018-02-12T23:34:39.940Z,15.30
2018-02-12T23:37:08.193Z,14.37
2018-02-12T23:39:36.421Z,15.37
2018-02-12T23:42:04.711Z,17.37
2018-02-12T23:44:33.773Z,15.40
2018-02-12T23:47:02.065Z,14.90
2018-02-12T23:49:30.290Z,14.67
2018-02-12T23:51:58.552Z,16.03
2018-02-12T23:54:26.973Z,17.23
2018-02-12T23:56:55.256Z,15.60
2018-02-12T23:59:23.499Z,14.87
